createdAt,value
2023-01-13T00:00:16.197Z,4.37
2023-01-13T00:01:16.186Z,4.36
2023-01-13T00:02:16.142Z,4.37
2023-01-13T00:03:16.105Z,4.39
2023-01-13T00:04:16.105Z,4.42
2023-01-13T00:05:16.107Z,4.45
2023-01-13T00:06:16.166Z,4.48
2023-01-13T00:07:16.624Z,4.49
2023-01-13T00:08:16.075Z,4.50
2023-01-13T00:09:16.270Z,4.50
2023-01-13T00:10:16.046Z,4.52
2023-01-13T00:11:16.052Z,4.55
2023-01-13T00:12:16.048Z,4.58
2023-01-13T00:13:16.055Z,4.62
2023-01-13T00:14:16.058Z,4.64
2023-01-13T00:15:16.068Z,4.66
2023-01-13T00:16:16.047Z,4.66
2023-01-13T00:17:16.149Z,4.64
2023-01-13T00:18:15.965Z,4.62
2023-01-13T00:19:15.977Z,4.60
2023-01-13T00:20:16.064Z,4.57
2023-01-13T00:21:15.955Z,4.54
2023-01-13T00:22:15.999Z,4.51
2023-01-13T00:23:16.059Z,4.50
2023-01-13T00:24:15.973Z,4.50
2023-01-13T00:25:15.901Z,4.51
2023-01-13T00:26:15.881Z,4.52
2023-01-13T00:27:15.898Z,4.53
2023-01-13T00:28:15.911Z,4.53
2023-01-13T00:29:15.868Z,4.56
2023-01-13T00:30:15.845Z,4.62
2023-01-13T00:31:16.799Z,4.66
2023-01-13T00:32:15.877Z,4.70
2023-01-13T00:33:15.805Z,4.74
2023-01-13T00:34:15.840Z,4.77
2023-01-13T00:35:15.796Z,4.80
2023-01-13T00:36:15.813Z,4.82
2023-01-13T00:37:15.807Z,4.85
2023-01-13T00:38:15.761Z,4.86
2023-01-13T00:39:15.765Z,4.87
2023-01-13T00:40:16.364Z,4.87
2023-01-13T00:41:15.741Z,4.88
2023-01-13T00:42:15.711Z,4.88
2023-01-13T00:43:15.726Z,4.87
2023-01-13T00:44:15.722Z,4.87
2023-01-13T00:45:15.765Z,4.87
2023-01-13T00:46:16.725Z,4.87
2023-01-13T00:47:15.731Z,4.88
2023-01-13T00:48:16.250Z,4.90
2023-01-13T00:49:15.682Z,4.92
2023-01-13T00:50:15.652Z,4.94
2023-01-13T00:51:16.443Z,4.94
2023-01-13T00:52:15.628Z,4.93
2023-01-13T00:53:16.024Z,4.93
2023-01-13T00:54:15.641Z,4.91
2023-01-13T00:55:15.638Z,4.90
2023-01-13T00:56:18.101Z,4.90
2023-01-13T00:57:15.568Z,4.91
2023-01-13T00:58:15.567Z,4.92
2023-01-13T00:59:15.627Z,4.93
2023-01-13T01:00:15.629Z,4.92
2023-01-13T01:01:15.638Z,4.91
2023-01-13T01:02:15.650Z,4.89
2023-01-13T01:03:16.251Z,4.87
2023-01-13T01:04:15.739Z,4.86
2023-01-13T01:05:15.734Z,4.83
2023-01-13T01:06:15.513Z,4.84
2023-01-13T01:07:15.781Z,4.85
2023-01-13T01:08:15.528Z,4.87
2023-01-13T01:09:15.477Z,4.87
2023-01-13T01:10:15.834Z,4.87
2023-01-13T01:11:15.439Z,4.87
2023-01-13T01:12:16.370Z,4.87
2023-01-13T01:13:15.420Z,4.88
2023-01-13T01:14:15.479Z,4.92
2023-01-13T01:15:15.455Z,4.96
2023-01-13T01:16:15.569Z,5.01
2023-01-13T01:17:15.690Z,5.06
2023-01-13T01:18:15.380Z,5.08
2023-01-13T01:19:15.404Z,5.08
2023-01-13T01:20:15.361Z,5.06
2023-01-13T01:21:15.364Z,5.04
2023-01-13T01:22:15.344Z,5.02
2023-01-13T01:23:15.370Z,5.00
2023-01-13T01:24:15.354Z,4.97
2023-01-13T01:25:15.288Z,4.93
2023-01-13T01:26:16.261Z,4.89
2023-01-13T01:27:15.296Z,4.85
2023-01-13T01:28:15.253Z,4.82
2023-01-13T01:29:15.261Z,4.79
2023-01-13T01:30:15.237Z,4.77
2023-01-13T01:31:15.305Z,4.75
2023-01-13T01:32:15.228Z,4.76
2023-01-13T01:33:15.221Z,4.78
2023-01-13T01:34:15.206Z,4.80
2023-01-13T01:35:15.191Z,4.81
2023-01-13T01:36:15.854Z,4.82
2023-01-13T01:37:15.174Z,4.83
2023-01-13T01:38:15.274Z,4.84
2023-01-13T01:39:15.164Z,4.85
2023-01-13T01:40:15.180Z,4.87
2023-01-13T01:41:15.145Z,4.90
2023-01-13T01:42:15.169Z,4.91
2023-01-13T01:43:15.110Z,4.93
2023-01-13T01:44:15.117Z,4.94
2023-01-13T01:45:15.077Z,4.94
2023-01-13T01:46:15.208Z,4.94
2023-01-13T01:47:16.271Z,4.95
2023-01-13T01:48:15.090Z,4.96
2023-01-13T01:49:15.052Z,4.95
2023-01-13T01:50:15.364Z,4.95
2023-01-13T01:51:15.032Z,4.95
2023-01-13T01:52:15.352Z,4.97
2023-01-13T01:53:15.027Z,4.99
2023-01-13T01:54:15.018Z,5.01
2023-01-13T01:55:15.648Z,5.03
2023-01-13T01:56:15.502Z,5.03
2023-01-13T01:57:14.988Z,5.02
2023-01-13T01:58:14.993Z,5.01
2023-01-13T01:59:15.006Z,5.00
2023-01-13T02:00:15.200Z,5.00
2023-01-13T02:01:15.278Z,5.02
2023-01-13T02:02:15.405Z,5.04
2023-01-13T02:03:14.946Z,5.05
2023-01-13T02:04:15.450Z,5.05
2023-01-13T02:05:14.939Z,5.06
2023-01-13T02:06:14.941Z,5.08
2023-01-13T02:07:14.895Z,5.11
2023-01-13T02:08:14.874Z,5.13
2023-01-13T02:09:14.900Z,5.14
2023-01-13T02:10:14.938Z,5.15
2023-01-13T02:11:14.822Z,5.15
2023-01-13T02:12:14.845Z,5.17
2023-01-13T02:13:14.874Z,5.19
2023-01-13T02:14:14.809Z,5.20
2023-01-13T02:15:14.837Z,5.18
2023-01-13T02:16:15.348Z,5.17
2023-01-13T02:17:14.792Z,5.15
2023-01-13T02:18:14.769Z,5.13
2023-01-13T02:19:14.777Z,5.10
2023-01-13T02:20:14.750Z,5.07
2023-01-13T02:21:14.794Z,5.06
2023-01-13T02:22:14.716Z,5.07
2023-01-13T02:23:14.742Z,5.08
2023-01-13T02:24:14.748Z,5.09
2023-01-13T02:25:14.695Z,5.09
2023-01-13T02:26:14.679Z,5.07
2023-01-13T02:27:14.672Z,5.07
2023-01-13T02:28:14.768Z,5.06
2023-01-13T02:29:14.653Z,5.06
2023-01-13T02:30:14.629Z,5.05
2023-01-13T02:31:14.760Z,5.03
2023-01-13T02:32:14.665Z,5.02
2023-01-13T02:33:14.686Z,5.01
2023-01-13T02:34:14.593Z,5.00
2023-01-13T02:35:14.608Z,4.99
2023-01-13T02:36:14.607Z,4.97
2023-01-13T02:37:14.560Z,4.96
2023-01-13T02:38:14.663Z,4.96
2023-01-13T02:39:14.571Z,4.95
2023-01-13T02:40:14.779Z,4.94
2023-01-13T02:41:14.548Z,4.94
2023-01-13T02:42:15.063Z,4.94
2023-01-13T02:43:14.498Z,4.95
2023-01-13T02:44:15.007Z,4.95
2023-01-13T02:45:14.503Z,4.95
2023-01-13T02:46:14.776Z,4.93
2023-01-13T02:47:14.568Z,4.91
2023-01-13T02:48:14.851Z,4.89
2023-01-13T02:49:15.215Z,4.88
2023-01-13T02:50:14.441Z,4.86
2023-01-13T02:51:14.799Z,4.85
2023-01-13T02:52:14.454Z,4.84
2023-01-13T02:53:14.414Z,4.83
2023-01-13T02:54:14.406Z,4.82
2023-01-13T02:55:14.431Z,4.81
2023-01-13T02:56:14.420Z,4.79
2023-01-13T02:57:14.364Z,4.78
2023-01-13T02:58:16.249Z,4.78
2023-01-13T02:59:14.391Z,4.79
2023-01-13T03:00:17.390Z,4.80
2023-01-13T03:01:14.467Z,4.81
2023-01-13T03:02:16.124Z,4.81
2023-01-13T03:03:14.327Z,4.81
2023-01-13T03:04:14.352Z,4.81
2023-01-13T03:05:14.300Z,4.82
2023-01-13T03:06:14.297Z,4.83
2023-01-13T03:07:14.294Z,4.85
2023-01-13T03:08:15.122Z,4.86
2023-01-13T03:09:14.277Z,4.84
2023-01-13T03:10:14.234Z,4.81
2023-01-13T03:11:14.330Z,4.80
2023-01-13T03:12:14.240Z,4.79
2023-01-13T03:13:14.228Z,4.78
2023-01-13T03:14:14.214Z,4.77
2023-01-13T03:15:14.206Z,4.78
2023-01-13T03:16:14.203Z,4.80
2023-01-13T03:17:14.217Z,4.81
2023-01-13T03:18:14.183Z,4.81
2023-01-13T03:19:14.161Z,4.82
2023-01-13T03:20:14.142Z,4.82
2023-01-13T03:21:14.186Z,4.84
2023-01-13T03:22:14.131Z,4.84
2023-01-13T03:23:14.122Z,4.83
2023-01-13T03:24:14.118Z,4.81
2023-01-13T03:25:14.114Z,4.80
2023-01-13T03:26:14.173Z,4.79
2023-01-13T03:27:14.087Z,4.78
2023-01-13T03:28:14.061Z,4.76
2023-01-13T03:29:14.131Z,4.75
2023-01-13T03:30:14.046Z,4.74
2023-01-13T03:31:14.836Z,4.74
2023-01-13T03:32:14.058Z,4.74
2023-01-13T03:33:14.021Z,4.74
2023-01-13T03:34:14.030Z,4.74
2023-01-13T03:35:13.985Z,4.73
2023-01-13T03:36:14.026Z,4.72
2023-01-13T03:37:13.962Z,4.72
2023-01-13T03:38:13.959Z,4.72
2023-01-13T03:39:13.944Z,4.73
2023-01-13T03:40:13.975Z,4.72
2023-01-13T03:41:13.929Z,4.71
2023-01-13T03:42:13.931Z,4.70
2023-01-13T03:43:13.951Z,4.70
2023-01-13T03:44:13.936Z,4.71
2023-01-13T03:45:13.889Z,4.70
2023-01-13T03:46:15.672Z,4.70
2023-01-13T03:47:13.899Z,4.70
2023-01-13T03:48:13.861Z,4.71
2023-01-13T03:49:13.885Z,4.73
2023-01-13T03:50:18.157Z,4.75
2023-01-13T03:51:14.140Z,4.77
2023-01-13T03:52:14.495Z,4.79
2023-01-13T03:53:15.267Z,4.79
2023-01-13T03:54:18.656Z,4.78
2023-01-13T03:55:13.804Z,4.78
2023-01-13T03:56:13.829Z,4.78
2023-01-13T03:57:13.770Z,4.78
2023-01-13T03:58:13.844Z,4.79
2023-01-13T03:59:13.777Z,4.81
2023-01-13T04:00:13.774Z,4.83
2023-01-13T04:01:13.820Z,4.83
2023-01-13T04:02:13.896Z,4.82
2023-01-13T04:03:13.787Z,4.79
2023-01-13T04:04:13.721Z,4.77
2023-01-13T04:05:13.718Z,4.76
2023-01-13T04:06:13.729Z,4.76
2023-01-13T04:07:13.658Z,4.76
2023-01-13T04:08:13.663Z,4.78
2023-01-13T04:09:13.703Z,4.79
2023-01-13T04:10:13.746Z,4.82
2023-01-13T04:11:13.901Z,4.83
2023-01-13T04:12:13.627Z,4.83
2023-01-13T04:13:13.599Z,4.81
2023-01-13T04:14:13.664Z,4.79
2023-01-13T04:15:13.602Z,4.78
2023-01-13T04:16:13.705Z,4.79
2023-01-13T04:17:13.608Z,4.79
2023-01-13T04:18:13.588Z,4.79
2023-01-13T04:19:13.541Z,4.77
2023-01-13T04:20:13.715Z,4.77
2023-01-13T04:21:13.519Z,4.78
2023-01-13T04:22:13.567Z,4.79
2023-01-13T04:23:13.520Z,4.80
2023-01-13T04:24:13.521Z,4.81
2023-01-13T04:25:13.599Z,4.82
2023-01-13T04:26:13.513Z,4.83
2023-01-13T04:27:13.488Z,4.84
2023-01-13T04:28:13.462Z,4.84
2023-01-13T04:29:15.561Z,4.85
2023-01-13T04:30:13.427Z,4.86
2023-01-13T04:31:13.505Z,4.85
2023-01-13T04:32:13.439Z,4.84
2023-01-13T04:33:13.419Z,4.82
2023-01-13T04:34:13.398Z,4.82
2023-01-13T04:35:13.442Z,4.82
2023-01-13T04:36:13.405Z,4.82
2023-01-13T04:37:13.373Z,4.83
2023-01-13T04:38:13.356Z,4.84
2023-01-13T04:39:13.367Z,4.84
2023-01-13T04:40:13.343Z,4.83
2023-01-13T04:41:13.395Z,4.82
2023-01-13T04:42:13.363Z,4.82
2023-01-13T04:43:13.326Z,4.83
2023-01-13T04:44:13.321Z,4.84
2023-01-13T04:45:13.367Z,4.83
2023-01-13T04:46:13.299Z,4.82
2023-01-13T04:47:13.264Z,4.81
2023-01-13T04:48:13.254Z,4.79
2023-01-13T04:49:13.281Z,4.77
2023-01-13T04:50:13.241Z,4.75
2023-01-13T04:51:13.243Z,4.74
2023-01-13T04:52:13.232Z,4.74
2023-01-13T04:53:13.296Z,4.74
2023-01-13T04:54:13.198Z,4.73
2023-01-13T04:55:13.188Z,4.75
2023-01-13T04:56:13.171Z,4.76
2023-01-13T04:57:13.205Z,4.77
2023-01-13T04:58:13.158Z,4.78
2023-01-13T04:59:13.166Z,4.79
2023-01-13T05:00:13.140Z,4.79
2023-01-13T05:01:13.190Z,4.79
2023-01-13T05:02:13.132Z,4.78
2023-01-13T05:03:13.116Z,4.76
2023-01-13T05:04:13.098Z,4.75
2023-01-13T05:05:13.124Z,4.78
2023-01-13T05:06:13.079Z,4.82
2023-01-13T05:07:13.064Z,4.84
2023-01-13T05:08:13.101Z,4.85
2023-01-13T05:09:13.066Z,4.85
2023-01-13T05:10:13.037Z,4.84
2023-01-13T05:11:13.095Z,4.84
2023-01-13T05:12:13.037Z,4.84
2023-01-13T05:13:13.023Z,4.85
2023-01-13T05:14:13.017Z,4.86
2023-01-13T05:15:13.078Z,4.89
2023-01-13T05:16:13.081Z,4.90
2023-01-13T05:17:12.994Z,4.90
2023-01-13T05:18:12.969Z,4.89
2023-01-13T05:19:12.941Z,4.89
2023-01-13T05:20:12.960Z,4.88
2023-01-13T05:21:12.917Z,4.87
2023-01-13T05:22:12.948Z,4.87
2023-01-13T05:23:12.921Z,4.89
2023-01-13T05:24:12.897Z,4.92
2023-01-13T05:25:12.896Z,4.94
2023-01-13T05:26:12.877Z,4.97
2023-01-13T05:27:12.884Z,4.98
2023-01-13T05:28:12.885Z,4.98
2023-01-13T05:29:13.800Z,4.96
2023-01-13T05:30:13.204Z,4.94
2023-01-13T05:31:13.370Z,4.93
2023-01-13T05:32:14.139Z,4.93
2023-01-13T05:33:12.815Z,4.93
2023-01-13T05:34:12.832Z,4.93
2023-01-13T05:35:12.832Z,4.93
2023-01-13T05:36:12.795Z,4.93
2023-01-13T05:37:12.761Z,4.93
2023-01-13T05:38:12.788Z,4.95
2023-01-13T05:39:12.843Z,4.98
2023-01-13T05:40:12.749Z,5.03
2023-01-13T05:41:12.765Z,5.06
2023-01-13T05:42:12.727Z,5.07
2023-01-13T05:43:12.700Z,5.06
2023-01-13T05:44:12.883Z,5.05
2023-01-13T05:45:12.688Z,5.07
2023-01-13T05:46:12.766Z,5.09
2023-01-13T05:47:12.706Z,5.09
2023-01-13T05:48:12.672Z,5.08
2023-01-13T05:49:12.640Z,5.08
2023-01-13T05:50:12.672Z,5.09
2023-01-13T05:51:12.633Z,5.10
2023-01-13T05:52:12.657Z,5.11
2023-01-13T05:53:12.653Z,5.11
2023-01-13T05:54:12.596Z,5.12
2023-01-13T05:55:12.611Z,5.14
2023-01-13T05:56:12.615Z,5.16
2023-01-13T05:57:12.571Z,5.19
2023-01-13T05:58:12.608Z,5.22
2023-01-13T05:59:12.559Z,5.23
2023-01-13T06:00:12.537Z,5.21
2023-01-13T06:01:12.561Z,5.20
2023-01-13T06:02:12.515Z,5.19
2023-01-13T06:03:12.616Z,5.19
2023-01-13T06:04:12.617Z,5.20
2023-01-13T06:05:12.479Z,5.21
2023-01-13T06:06:12.519Z,5.25
2023-01-13T06:07:12.466Z,5.27
2023-01-13T06:08:12.446Z,5.27
2023-01-13T06:09:12.511Z,5.27
2023-01-13T06:10:12.425Z,5.27
2023-01-13T06:11:12.442Z,5.27
2023-01-13T06:12:12.448Z,5.28
2023-01-13T06:13:12.410Z,5.28
2023-01-13T06:14:12.415Z,5.28
2023-01-13T06:15:12.402Z,5.30
2023-01-13T06:16:12.509Z,5.32
2023-01-13T06:17:12.362Z,5.34
2023-01-13T06:18:12.451Z,5.36
2023-01-13T06:19:12.466Z,5.39
2023-01-13T06:20:12.841Z,5.41
2023-01-13T06:21:12.326Z,5.42
2023-01-13T06:22:12.764Z,5.43
2023-01-13T06:23:12.312Z,5.43
2023-01-13T06:24:12.303Z,5.42
2023-01-13T06:25:12.642Z,5.41
2023-01-13T06:26:12.332Z,5.41
2023-01-13T06:27:12.308Z,5.42
2023-01-13T06:28:12.305Z,5.43
2023-01-13T06:29:12.233Z,5.44
2023-01-13T06:30:12.211Z,5.44
2023-01-13T06:31:12.286Z,5.43
2023-01-13T06:32:12.636Z,5.44
2023-01-13T06:33:12.498Z,5.46
2023-01-13T06:34:12.531Z,5.47
2023-01-13T06:35:12.467Z,5.47
2023-01-13T06:36:12.323Z,5.46
2023-01-13T06:37:12.384Z,5.45
2023-01-13T06:38:12.189Z,5.45
2023-01-13T06:39:12.094Z,5.46
2023-01-13T06:40:12.084Z,5.47
2023-01-13T06:41:12.094Z,5.47
2023-01-13T06:42:12.151Z,5.46
2023-01-13T06:43:13.802Z,5.45
2023-01-13T06:44:12.085Z,5.45
2023-01-13T06:45:12.053Z,5.44
2023-01-13T06:46:12.047Z,5.43
2023-01-13T06:47:12.042Z,5.42
2023-01-13T06:48:12.056Z,5.41
2023-01-13T06:49:12.006Z,5.41
2023-01-13T06:50:12.010Z,5.41
2023-01-13T06:51:11.995Z,5.41
2023-01-13T06:52:11.973Z,5.40
2023-01-13T06:53:11.991Z,5.39
2023-01-13T06:54:12.015Z,5.39
2023-01-13T06:55:12.011Z,5.39
2023-01-13T06:56:12.001Z,5.37
2023-01-13T06:57:11.921Z,5.35
2023-01-13T06:58:11.915Z,5.35
2023-01-13T06:59:11.939Z,5.35
2023-01-13T07:00:11.885Z,5.35
2023-01-13T07:01:12.069Z,5.36
2023-01-13T07:02:12.075Z,5.38
2023-01-13T07:03:11.849Z,5.40
2023-01-13T07:04:11.835Z,5.41
2023-01-13T07:05:11.877Z,5.43
2023-01-13T07:06:11.817Z,5.44
2023-01-13T07:07:11.857Z,5.45
2023-01-13T07:08:11.826Z,5.45
2023-01-13T07:09:11.777Z,5.45
2023-01-13T07:10:11.791Z,5.45
2023-01-13T07:11:11.865Z,5.43
2023-01-13T07:12:11.760Z,5.42
2023-01-13T07:13:11.793Z,5.42
2023-01-13T07:14:11.764Z,5.42
2023-01-13T07:15:11.730Z,5.43
2023-01-13T07:16:11.747Z,5.44
2023-01-13T07:17:11.758Z,5.46
2023-01-13T07:18:11.710Z,5.48
2023-01-13T07:19:11.703Z,5.49
2023-01-13T07:20:11.724Z,5.49
2023-01-13T07:21:11.661Z,5.50
2023-01-13T07:22:11.666Z,5.50
2023-01-13T07:23:11.740Z,5.50
2023-01-13T07:24:11.666Z,5.52
2023-01-13T07:25:11.653Z,5.53
2023-01-13T07:26:11.665Z,5.55
2023-01-13T07:27:11.694Z,5.58
2023-01-13T07:28:11.668Z,5.60
2023-01-13T07:29:11.593Z,5.60
2023-01-13T07:30:11.612Z,5.60
2023-01-13T07:31:11.608Z,5.60
2023-01-13T07:32:11.583Z,5.60
2023-01-13T07:33:11.576Z,5.61
2023-01-13T07:34:11.584Z,5.62
2023-01-13T07:35:11.520Z,5.62
2023-01-13T07:36:11.583Z,5.63
2023-01-13T07:37:11.539Z,5.64
2023-01-13T07:38:11.512Z,5.64
2023-01-13T07:39:11.563Z,5.63
2023-01-13T07:40:11.523Z,5.62
2023-01-13T07:41:11.698Z,5.62
2023-01-13T07:42:11.531Z,5.62
2023-01-13T07:43:11.459Z,5.62
2023-01-13T07:44:11.457Z,5.63
2023-01-13T07:45:12.424Z,5.63
2023-01-13T07:46:11.465Z,5.63
2023-01-13T07:47:11.436Z,5.63
2023-01-13T07:48:18.448Z,5.64
2023-01-13T07:49:11.493Z,5.64
2023-01-13T07:50:11.483Z,5.64
2023-01-13T07:51:11.406Z,5.64
2023-01-13T07:52:11.398Z,5.63
2023-01-13T07:53:11.380Z,5.62
2023-01-13T07:54:11.405Z,5.62
2023-01-13T07:55:11.492Z,5.62
2023-01-13T07:56:11.444Z,5.63
2023-01-13T07:57:11.408Z,5.64
2023-01-13T07:58:11.316Z,5.63
2023-01-13T07:59:11.290Z,5.63
2023-01-13T08:00:12.910Z,5.63
2023-01-13T08:01:11.416Z,5.64
2023-01-13T08:02:11.510Z,5.64
2023-01-13T08:03:11.299Z,5.63
2023-01-13T08:04:11.268Z,5.63
2023-01-13T08:05:11.223Z,5.63
2023-01-13T08:06:11.274Z,5.63
2023-01-13T08:07:11.235Z,5.63
2023-01-13T08:08:11.193Z,5.62
2023-01-13T08:09:11.207Z,5.61
2023-01-13T08:10:11.180Z,5.61
2023-01-13T08:11:11.221Z,5.61
2023-01-13T08:12:11.173Z,5.61
2023-01-13T08:13:11.135Z,5.61
2023-01-13T08:14:11.142Z,5.61
2023-01-13T08:15:11.475Z,5.62
2023-01-13T08:16:11.228Z,5.63
2023-01-13T08:17:11.121Z,5.63
2023-01-13T08:18:11.181Z,5.64
2023-01-13T08:19:11.096Z,5.64
2023-01-13T08:20:11.115Z,5.65
2023-01-13T08:21:11.727Z,5.65
2023-01-13T08:22:11.090Z,5.66
2023-01-13T08:23:11.048Z,5.67
2023-01-13T08:24:11.058Z,5.67
2023-01-13T08:25:11.055Z,5.68
2023-01-13T08:26:11.066Z,5.69
2023-01-13T08:27:11.030Z,5.70
2023-01-13T08:28:11.471Z,5.70
2023-01-13T08:29:12.995Z,5.71
2023-01-13T08:30:10.974Z,5.71
2023-01-13T08:31:11.060Z,5.71
2023-01-13T08:32:10.979Z,5.70
2023-01-13T08:33:11.028Z,5.70
2023-01-13T08:34:10.923Z,5.71
2023-01-13T08:35:10.938Z,5.71
2023-01-13T08:36:10.942Z,5.71
2023-01-13T08:37:10.968Z,5.71
2023-01-13T08:38:10.920Z,5.72
2023-01-13T08:39:10.972Z,5.73
2023-01-13T08:40:10.881Z,5.73
2023-01-13T08:41:10.881Z,5.73
2023-01-13T08:42:10.979Z,5.74
2023-01-13T08:43:10.904Z,5.75
2023-01-13T08:44:10.837Z,5.76
2023-01-13T08:45:10.881Z,5.77
2023-01-13T08:46:10.860Z,5.79
2023-01-13T08:47:10.858Z,5.81
2023-01-13T08:48:10.789Z,5.82
2023-01-13T08:49:10.799Z,5.82
2023-01-13T08:50:10.789Z,5.81
2023-01-13T08:51:10.838Z,5.82
2023-01-13T08:52:10.759Z,5.83
2023-01-13T08:53:10.776Z,5.84
2023-01-13T08:54:10.731Z,5.86
2023-01-13T08:55:10.736Z,5.87
2023-01-13T08:56:10.717Z,5.88
2023-01-13T08:57:10.816Z,5.90
2023-01-13T08:58:15.726Z,5.92
2023-01-13T08:59:10.717Z,5.93
2023-01-13T09:00:10.666Z,5.96
2023-01-13T09:01:10.877Z,6.00
2023-01-13T09:02:10.854Z,6.05
2023-01-13T09:03:10.650Z,6.07
2023-01-13T09:04:10.661Z,6.09
2023-01-13T09:05:10.636Z,6.12
2023-01-13T09:06:10.647Z,6.14
2023-01-13T09:07:10.649Z,6.15
2023-01-13T09:08:10.640Z,6.15
2023-01-13T09:09:10.587Z,6.16
2023-01-13T09:10:10.607Z,6.17
2023-01-13T09:11:10.570Z,6.17
2023-01-13T09:12:10.574Z,6.16
2023-01-13T09:13:10.593Z,6.16
2023-01-13T09:14:10.537Z,6.17
2023-01-13T09:15:10.613Z,6.18
2023-01-13T09:16:10.653Z,6.20
2023-01-13T09:17:10.504Z,6.23
2023-01-13T09:18:10.508Z,6.25
2023-01-13T09:19:10.528Z,6.26
2023-01-13T09:20:10.507Z,6.28
2023-01-13T09:21:10.458Z,6.30
2023-01-13T09:22:10.470Z,6.32
2023-01-13T09:23:11.379Z,6.34
2023-01-13T09:24:10.430Z,6.36
2023-01-13T09:25:10.449Z,6.37
2023-01-13T09:26:10.422Z,6.37
2023-01-13T09:27:10.469Z,6.40
2023-01-13T09:28:10.409Z,6.44
2023-01-13T09:29:10.396Z,6.49
2023-01-13T09:30:10.411Z,6.53
2023-01-13T09:31:10.427Z,6.54
2023-01-13T09:32:10.382Z,6.55
2023-01-13T09:33:10.451Z,6.55
2023-01-13T09:34:10.426Z,6.58
2023-01-13T09:35:10.365Z,6.65
2023-01-13T09:36:10.303Z,6.74
2023-01-13T09:37:10.335Z,6.82
2023-01-13T09:38:10.301Z,6.87
2023-01-13T09:39:10.305Z,6.91
2023-01-13T09:40:10.259Z,6.95
2023-01-13T09:41:10.326Z,7.02
2023-01-13T09:42:10.241Z,7.08
2023-01-13T09:43:10.277Z,7.13
2023-01-13T09:44:10.229Z,7.16
2023-01-13T09:45:10.292Z,7.16
2023-01-13T09:46:10.258Z,7.15
2023-01-13T09:47:12.034Z,7.13
2023-01-13T09:48:10.212Z,7.12
2023-01-13T09:49:10.298Z,7.12
2023-01-13T09:50:10.196Z,7.11
2023-01-13T09:51:10.253Z,7.09
2023-01-13T09:52:10.153Z,7.08
2023-01-13T09:53:10.155Z,7.08
2023-01-13T09:54:10.151Z,7.08
2023-01-13T09:55:10.156Z,7.08
2023-01-13T09:56:10.162Z,7.08
2023-01-13T09:57:10.198Z,7.08
2023-01-13T09:58:10.778Z,7.12
2023-01-13T09:59:10.109Z,7.14
2023-01-13T10:00:10.143Z,7.17
2023-01-13T10:01:10.124Z,7.19
2023-01-13T10:02:10.058Z,7.21
2023-01-13T10:03:10.192Z,7.21
2023-01-13T10:04:10.027Z,7.22
2023-01-13T10:05:10.124Z,7.24
2023-01-13T10:06:10.140Z,7.26
2023-01-13T10:07:10.059Z,7.28
2023-01-13T10:08:10.007Z,7.31
2023-01-13T10:09:09.980Z,7.33
2023-01-13T10:10:09.978Z,7.34
2023-01-13T10:11:09.971Z,7.33
2023-01-13T10:12:09.983Z,7.33
2023-01-13T10:13:09.942Z,7.34
2023-01-13T10:14:09.958Z,7.33
2023-01-13T10:15:09.917Z,7.32
2023-01-13T10:16:09.973Z,7.33
2023-01-13T10:17:09.913Z,7.36
2023-01-13T10:18:09.918Z,7.38
2023-01-13T10:19:09.893Z,7.40
2023-01-13T10:20:09.889Z,7.43
2023-01-13T10:21:10.356Z,7.47
2023-01-13T10:22:10.202Z,7.50
2023-01-13T10:23:09.943Z,7.51
2023-01-13T10:24:09.855Z,7.53
2023-01-13T10:25:09.843Z,7.55
2023-01-13T10:26:09.847Z,7.56
2023-01-13T10:27:09.850Z,7.57
2023-01-13T10:28:09.819Z,7.59
2023-01-13T10:29:09.852Z,7.60
2023-01-13T10:30:10.091Z,7.60
2023-01-13T10:31:09.886Z,7.57
2023-01-13T10:32:10.182Z,7.54
2023-01-13T10:33:09.820Z,7.52
2023-01-13T10:34:09.717Z,7.50
2023-01-13T10:35:10.279Z,7.49
2023-01-13T10:36:10.130Z,7.48
2023-01-13T10:37:09.876Z,7.46
2023-01-13T10:38:09.700Z,7.44
2023-01-13T10:39:10.216Z,7.43
2023-01-13T10:40:10.367Z,7.42
2023-01-13T10:41:09.977Z,7.41
2023-01-13T10:42:09.903Z,7.39
2023-01-13T10:43:10.034Z,7.38
2023-01-13T10:44:10.104Z,7.36
2023-01-13T10:45:09.650Z,7.36
2023-01-13T10:46:09.638Z,7.38
2023-01-13T10:47:09.604Z,7.42
2023-01-13T10:48:09.611Z,7.45
2023-01-13T10:49:09.659Z,7.47
2023-01-13T10:50:09.917Z,7.52
2023-01-13T10:51:09.622Z,7.57
2023-01-13T10:52:09.610Z,7.57
2023-01-13T10:53:09.581Z,7.53
2023-01-13T10:54:09.522Z,7.49
2023-01-13T10:55:09.576Z,7.45
2023-01-13T10:56:09.511Z,7.43
2023-01-13T10:57:09.562Z,7.41
2023-01-13T10:58:09.499Z,7.39
2023-01-13T10:59:09.529Z,7.37
2023-01-13T11:00:09.513Z,7.36
2023-01-13T11:01:09.521Z,7.37
2023-01-13T11:02:24.197Z,7.36
2023-01-13T11:03:09.482Z,7.34
2023-01-13T11:04:09.427Z,7.32
2023-01-13T11:05:09.487Z,7.30
2023-01-13T11:06:09.406Z,7.28
2023-01-13T11:07:09.416Z,7.27
2023-01-13T11:08:09.409Z,7.27
2023-01-13T11:09:09.374Z,7.28
2023-01-13T11:10:09.367Z,7.30
2023-01-13T11:11:09.353Z,7.32
2023-01-13T11:12:09.365Z,7.32
2023-01-13T11:13:09.371Z,7.29
2023-01-13T11:14:09.411Z,7.25
2023-01-13T11:15:09.342Z,7.21
2023-01-13T11:16:09.401Z,7.18
2023-01-13T11:17:09.324Z,7.14
2023-01-13T11:18:09.328Z,7.12
2023-01-13T11:19:09.282Z,7.11
2023-01-13T11:20:09.311Z,7.10
2023-01-13T11:21:09.246Z,7.11
2023-01-13T11:22:09.283Z,7.12
2023-01-13T11:23:09.267Z,7.16
2023-01-13T11:24:09.564Z,7.17
2023-01-13T11:25:09.220Z,7.18
2023-01-13T11:26:09.272Z,7.19
2023-01-13T11:27:09.183Z,7.21
2023-01-13T11:28:09.200Z,7.24
2023-01-13T11:29:09.233Z,7.35
2023-01-13T11:30:09.261Z,7.53
2023-01-13T11:31:09.191Z,7.69
2023-01-13T11:32:09.198Z,7.82
2023-01-13T11:33:09.214Z,7.95
2023-01-13T11:34:09.325Z,8.08
2023-01-13T11:35:09.143Z,8.16
2023-01-13T11:36:09.142Z,8.25
2023-01-13T11:37:09.175Z,8.33
2023-01-13T11:38:09.110Z,8.38
2023-01-13T11:39:09.416Z,8.37
2023-01-13T11:40:09.087Z,8.38
2023-01-13T11:41:09.062Z,8.42
2023-01-13T11:42:09.054Z,8.47
2023-01-13T11:43:09.073Z,8.55
2023-01-13T11:44:09.032Z,8.63
2023-01-13T11:45:09.191Z,8.63
2023-01-13T11:46:09.134Z,8.54
2023-01-13T11:47:09.032Z,8.36
2023-01-13T11:48:09.035Z,8.21
2023-01-13T11:49:09.011Z,8.07
2023-01-13T11:50:08.967Z,7.93
2023-01-13T11:51:08.997Z,7.84
2023-01-13T11:52:08.952Z,7.78
2023-01-13T11:53:08.981Z,7.74
2023-01-13T11:54:09.100Z,7.70
2023-01-13T11:55:08.965Z,7.66
2023-01-13T11:56:08.888Z,7.63
2023-01-13T11:57:08.987Z,7.60
2023-01-13T11:58:08.912Z,7.57
2023-01-13T11:59:08.888Z,7.54
2023-01-13T12:00:08.891Z,7.51
2023-01-13T12:01:08.905Z,7.47
2023-01-13T12:02:08.873Z,7.44
2023-01-13T12:03:09.012Z,7.43
2023-01-13T12:04:08.842Z,7.42
2023-01-13T12:05:08.845Z,7.41
2023-01-13T12:06:08.992Z,7.43
2023-01-13T12:07:08.893Z,7.44
2023-01-13T12:08:08.886Z,7.45
2023-01-13T12:09:08.774Z,7.45
2023-01-13T12:10:13.248Z,7.44
2023-01-13T12:11:08.785Z,7.43
2023-01-13T12:12:08.800Z,7.41
2023-01-13T12:13:08.823Z,7.35
2023-01-13T12:14:08.868Z,6.83
2023-01-13T12:15:08.834Z,5.92
2023-01-13T12:16:08.756Z,5.05
2023-01-13T12:17:08.730Z,4.37
2023-01-13T12:18:08.832Z,3.90
2023-01-13T12:19:09.163Z,3.59
2023-01-13T12:20:08.770Z,3.39
2023-01-13T12:21:08.697Z,3.26
2023-01-13T12:22:08.641Z,3.18
2023-01-13T12:23:08.785Z,3.15
2023-01-13T12:24:08.812Z,3.17
2023-01-13T12:25:08.654Z,3.23
2023-01-13T12:26:08.604Z,3.31
2023-01-13T12:27:08.599Z,3.37
2023-01-13T12:28:08.771Z,3.41
2023-01-13T12:29:08.694Z,3.46
2023-01-13T12:30:08.688Z,3.51
2023-01-13T12:31:08.576Z,3.55
2023-01-13T12:32:08.539Z,3.58
2023-01-13T12:33:08.523Z,3.61
2023-01-13T12:34:08.514Z,3.62
2023-01-13T12:35:08.535Z,3.62
2023-01-13T12:36:08.561Z,3.61
2023-01-13T12:37:08.554Z,3.59
2023-01-13T12:38:08.496Z,3.55
2023-01-13T12:39:08.465Z,3.51
2023-01-13T12:40:08.586Z,3.46
2023-01-13T12:41:08.440Z,3.43
2023-01-13T12:42:08.928Z,3.41
2023-01-13T12:43:08.887Z,3.37
2023-01-13T12:44:08.429Z,3.29
2023-01-13T12:45:08.391Z,3.21
2023-01-13T12:46:08.907Z,3.14
2023-01-13T12:47:08.491Z,3.06
2023-01-13T12:48:08.395Z,3.00
2023-01-13T12:49:08.650Z,2.96
2023-01-13T12:50:09.597Z,2.93
2023-01-13T12:51:08.412Z,2.89
2023-01-13T12:52:08.361Z,2.87
2023-01-13T12:53:08.337Z,2.87
2023-01-13T12:54:08.508Z,2.91
2023-01-13T12:55:08.301Z,2.95
2023-01-13T12:56:08.288Z,3.01
2023-01-13T12:57:08.578Z,3.08
2023-01-13T12:58:08.398Z,3.15
2023-01-13T12:59:08.282Z,3.19
2023-01-13T13:00:08.313Z,3.21
2023-01-13T13:01:08.375Z,3.21
2023-01-13T13:02:08.375Z,3.20
2023-01-13T13:03:08.322Z,3.19
2023-01-13T13:04:08.212Z,3.18
2023-01-13T13:05:08.217Z,3.18
2023-01-13T13:06:08.223Z,3.18
2023-01-13T13:07:08.236Z,3.20
2023-01-13T13:08:08.232Z,3.23
2023-01-13T13:09:08.168Z,3.27
2023-01-13T13:10:08.176Z,3.33
2023-01-13T13:11:08.187Z,3.37
2023-01-13T13:12:08.124Z,3.41
2023-01-13T13:13:08.130Z,3.45
2023-01-13T13:14:08.127Z,3.48
2023-01-13T13:15:08.217Z,3.51
2023-01-13T13:16:08.089Z,3.55
2023-01-13T13:17:08.219Z,3.57
2023-01-13T13:18:08.214Z,3.58